sensor_id;sensor_type;location;lat;lon;timestamp;P1;durP1;ratioP1;P2;durP2;ratioP2
56043;SDS011;41912;51.022;3.664;2023-03-26T00:01:23;30.35;;;7.18;;
56043;SDS011;41912;51.022;3.664;2023-03-26T00:03:50;32.88;;;6.18;;
56043;SDS011;41912;51.022;3.664;2023-03-26T00:06:22;33.33;;;4.75;;
56043;SDS011;41912;51.022;3.664;2023-03-26T00:08:51;28.45;;;5.28;;
56043;SDS011;41912;51.022;3.664;2023-03-26T00:11:20;25.83;;;4.63;;
56043;SDS011;41912;51.022;3.664;2023-03-26T00:13:47;28.25;;;6.20;;
56043;SDS011;41912;51.022;3.664;2023-03-26T00:16:14;38.40;;;6.50;;
56043;SDS011;41912;51.022;3.664;2023-03-26T00:18:41;24.30;;;4.38;;
56043;SDS011;41912;51.022;3.664;2023-03-26T00:21:09;28.38;;;4.55;;
56043;SDS011;41912;51.022;3.664;2023-03-26T00:23:36;31.95;;;4.43;;
56043;SDS011;41912;51.022;3.664;2023-03-26T00:26:02;17.10;;;4.72;;
56043;SDS011;41912;51.022;3.664;2023-03-26T00:28:29;32.78;;;6.22;;
56043;SDS011;41912;51.022;3.664;2023-03-26T00:30:59;33.17;;;5.38;;
56043;SDS011;41912;51.022;3.664;2023-03-26T00:33:27;26.63;;;4.90;;
56043;SDS011;41912;51.022;3.664;2023-03-26T00:35:53;20.48;;;3.72;;
56043;SDS011;41912;51.022;3.664;2023-03-26T00:38:21;31.52;;;4.97;;
56043;SDS011;41912;51.022;3.664;2023-03-26T00:40:48;24.23;;;4.13;;
56043;SDS011;41912;51.022;3.664;2023-03-26T00:43:17;33.83;;;6.57;;
56043;SDS011;41912;51.022;3.664;2023-03-26T00:45:48;29.00;;;4.80;;
56043;SDS011;41912;51.022;3.664;2023-03-26T00:48:15;24.85;;;3.80;;
56043;SDS011;41912;51.022;3.664;2023-03-26T00:50:42;27.75;;;3.88;;
56043;SDS011;41912;51.022;3.664;2023-03-26T00:53:10;30.08;;;4.50;;
56043;SDS011;41912;51.022;3.664;2023-03-26T00:55:36;26.70;;;4.22;;
56043;SDS011;41912;51.022;3.664;2023-03-26T00:58:02;30.45;;;5.70;;
56043;SDS011;41912;51.022;3.664;2023-03-26T01:00:33;18.42;;;3.67;;
56043;SDS011;41912;51.022;3.664;2023-03-26T01:03:00;25.73;;;4.30;;
56043;SDS011;41912;51.022;3.664;2023-03-26T01:08:11;20.63;;;3.53;;
56043;SDS011;41912;51.022;3.664;2023-03-26T01:10:41;26.55;;;3.90;;
56043;SDS011;41912;51.022;3.664;2023-03-26T01:13:14;30.52;;;4.55;;
56043;SDS011;41912;51.022;3.664;2023-03-26T01:15:41;23.48;;;4.57;;
56043;SDS011;41912;51.022;3.664;2023-03-26T01:18:08;21.30;;;3.63;;
56043;SDS011;41912;51.022;3.664;2023-03-26T01:20:38;21.88;;;4.00;;
56043;SDS011;41912;51.022;3.664;2023-03-26T01:23:10;25.27;;;4.38;;
56043;SDS011;41912;51.022;3.664;2023-03-26T01:25:37;24.92;;;3.70;;
56043;SDS011;41912;51.022;3.664;2023-03-26T01:28:09;27.75;;;4.38;;
56043;SDS011;41912;51.022;3.664;2023-03-26T01:30:45;33.10;;;6.30;;
56043;SDS011;41912;51.022;3.664;2023-03-26T01:35:51;27.90;;;3.95;;
56043;SDS011;41912;51.022;3.664;2023-03-26T01:43:38;22.17;;;4.53;;
56043;SDS011;41912;51.022;3.664;2023-03-26T01:46:11;19.52;;;4.22;;
56043;SDS011;41912;51.022;3.664;2023-03-26T01:48:40;25.98;;;4.28;;
56043;SDS011;41912;51.022;3.664;2023-03-26T01:51:07;28.55;;;4.78;;
56043;SDS011;41912;51.022;3.664;2023-03-26T01:53:36;19.88;;;5.05;;
56043;SDS011;41912;51.022;3.664;2023-03-26T02:01:37;24.75;;;4.00;;
56043;SDS011;41912;51.022;3.664;2023-03-26T02:04:43;24.73;;;5.47;;
56043;SDS011;41912;51.022;3.664;2023-03-26T02:09:48;28.42;;;4.90;;
56043;SDS011;41912;51.022;3.664;2023-03-26T02:12:18;20.20;;;3.85;;
56043;SDS011;41912;51.022;3.664;2023-03-26T02:14:45;28.13;;;4.55;;
56043;SDS011;41912;51.022;3.664;2023-03-26T02:17:11;24.23;;;4.55;;
56043;SDS011;41912;51.022;3.664;2023-03-26T02:19:37;22.27;;;4.75;;
56043;SDS011;41912;51.022;3.664;2023-03-26T02:22:07;24.83;;;4.70;;
56043;SDS011;41912;51.022;3.664;2023-03-26T02:24:40;18.58;;;4.20;;
56043;SDS011;41912;51.022;3.664;2023-03-26T02:27:06;18.45;;;3.15;;
56043;SDS011;41912;51.022;3.664;2023-03-26T02:29:33;27.00;;;3.90;;
56043;SDS011;41912;51.022;3.664;2023-03-26T02:32:02;17.48;;;3.78;;
56043;SDS011;41912;51.022;3.664;2023-03-26T02:34:29;23.52;;;4.43;;
56043;SDS011;41912;51.022;3.664;2023-03-26T02:36:55;22.10;;;3.92;;
56043;SDS011;41912;51.022;3.664;2023-03-26T02:39:21;22.90;;;4.65;;
56043;SDS011;41912;51.022;3.664;2023-03-26T02:41:47;24.60;;;3.55;;
56043;SDS011;41912;51.022;3.664;2023-03-26T02:44:13;23.92;;;3.63;;
56043;SDS011;41912;51.022;3.664;2023-03-26T02:46:39;26.08;;;3.88;;
56043;SDS011;41912;51.022;3.664;2023-03-26T02:49:05;16.20;;;3.53;;
56043;SDS011;41912;51.022;3.664;2023-03-26T02:51:30;19.00;;;3.33;;
56043;SDS011;41912;51.022;3.664;2023-03-26T02:53:59;19.65;;;4.80;;
56043;SDS011;41912;51.022;3.664;2023-03-26T02:56:25;19.02;;;3.38;;
56043;SDS011;41912;51.022;3.664;2023-03-26T02:58:51;25.35;;;4.38;;
56043;SDS011;41912;51.022;3.664;2023-03-26T03:01:17;24.02;;;3.75;;
56043;SDS011;41912;51.022;3.664;2023-03-26T03:03:43;16.58;;;4.00;;
56043;SDS011;41912;51.022;3.664;2023-03-26T03:06:11;14.75;;;3.38;;
56043;SDS011;41912;51.022;3.664;2023-03-26T03:08:37;20.05;;;3.63;;
56043;SDS011;41912;51.022;3.664;2023-03-26T03:11:07;17.05;;;3.67;;
56043;SDS011;41912;51.022;3.664;2023-03-26T03:13:34;14.93;;;3.67;;
56043;SDS011;41912;51.022;3.664;2023-03-26T03:16:00;15.70;;;3.88;;
56043;SDS011;41912;51.022;3.664;2023-03-26T03:18:26;21.58;;;3.75;;
56043;SDS011;41912;51.022;3.664;2023-03-26T03:20:52;24.83;;;3.80;;
56043;SDS011;41912;51.022;3.664;2023-03-26T03:23:20;18.80;;;3.55;;
56043;SDS011;41912;51.022;3.664;2023-03-26T03:25:46;21.35;;;3.58;;
56043;SDS011;41912;51.022;3.664;2023-03-26T03:28:13;19.40;;;4.47;;
56043;SDS011;41912;51.022;3.664;2023-03-26T03:30:39;14.88;;;3.22;;
56043;SDS011;41912;51.022;3.664;2023-03-26T03:33:05;17.48;;;3.53;;
56043;SDS011;41912;51.022;3.664;2023-03-26T03:35:31;26.35;;;4.10;;
56043;SDS011;41912;51.022;3.664;2023-03-26T03:37:57;15.23;;;2.90;;
56043;SDS011;41912;51.022;3.664;2023-03-26T03:40:23;19.20;;;3.47;;
56043;SDS011;41912;51.022;3.664;2023-03-26T03:42:50;17.50;;;3.45;;
56043;SDS011;41912;51.022;3.664;2023-03-26T03:45:16;24.00;;;4.43;;
56043;SDS011;41912;51.022;3.664;2023-03-26T03:47:41;16.20;;;3.17;;
56043;SDS011;41912;51.022;3.664;2023-03-26T03:50:07;14.10;;;3.05;;
56043;SDS011;41912;51.022;3.664;2023-03-26T03:52:33;15.93;;;3.28;;
56043;SDS011;41912;51.022;3.664;2023-03-26T03:54:59;22.65;;;3.17;;
56043;SDS011;41912;51.022;3.664;2023-03-26T03:57:25;19.52;;;3.63;;
56043;SDS011;41912;51.022;3.664;2023-03-26T03:59:51;16.90;;;3.75;;
56043;SDS011;41912;51.022;3.664;2023-03-26T04:02:17;23.80;;;3.40;;
56043;SDS011;41912;51.022;3.664;2023-03-26T04:04:53;14.45;;;3.13;;
56043;SDS011;41912;51.022;3.664;2023-03-26T04:07:21;14.90;;;2.90;;
56043;SDS011;41912;51.022;3.664;2023-03-26T04:09:51;17.48;;;3.25;;
56043;SDS011;41912;51.022;3.664;2023-03-26T04:12:17;28.10;;;3.67;;
56043;SDS011;41912;51.022;3.664;2023-03-26T04:14:43;13.63;;;2.78;;
56043;SDS011;41912;51.022;3.664;2023-03-26T04:17:08;24.48;;;4.07;;
56043;SDS011;41912;51.022;3.664;2023-03-26T04:19:37;18.92;;;4.25;;
56043;SDS011;41912;51.022;3.664;2023-03-26T04:22:03;21.08;;;4.07;;
56043;SDS011;41912;51.022;3.664;2023-03-26T04:24:29;26.02;;;3.90;;
56043;SDS011;41912;51.022;3.664;2023-03-26T04:26:58;21.77;;;3.35;;
56043;SDS011;41912;51.022;3.664;2023-03-26T04:29:25;23.77;;;4.13;;
56043;SDS011;41912;51.022;3.664;2023-03-26T04:31:54;22.65;;;3.60;;
56043;SDS011;41912;51.022;3.664;2023-03-26T04:34:23;19.95;;;3.28;;
56043;SDS011;41912;51.022;3.664;2023-03-26T04:36:49;19.42;;;3.30;;
56043;SDS011;41912;51.022;3.664;2023-03-26T04:39:18;19.35;;;3.20;;
56043;SDS011;41912;51.022;3.664;2023-03-26T04:41:47;23.75;;;3.67;;
56043;SDS011;41912;51.022;3.664;2023-03-26T04:44:13;22.63;;;3.72;;
56043;SDS011;41912;51.022;3.664;2023-03-26T04:46:41;27.33;;;4.40;;
56043;SDS011;41912;51.022;3.664;2023-03-26T04:49:07;22.48;;;3.90;;
56043;SDS011;41912;51.022;3.664;2023-03-26T04:51:36;16.40;;;2.90;;
56043;SDS011;41912;51.022;3.664;2023-03-26T04:54:05;16.17;;;3.20;;
56043;SDS011;41912;51.022;3.664;2023-03-26T04:59:11;16.90;;;3.50;;
56043;SDS011;41912;51.022;3.664;2023-03-26T05:01:41;20.38;;;3.42;;
56043;SDS011;41912;51.022;3.664;2023-03-26T05:04:10;21.02;;;4.03;;
56043;SDS011;41912;51.022;3.664;2023-03-26T05:06:37;16.42;;;3.22;;
56043;SDS011;41912;51.022;3.664;2023-03-26T05:09:05;17.52;;;3.33;;
56043;SDS011;41912;51.022;3.664;2023-03-26T05:11:32;16.63;;;3.00;;
56043;SDS011;41912;51.022;3.664;2023-03-26T05:13:58;19.55;;;3.38;;
56043;SDS011;41912;51.022;3.664;2023-03-26T05:16:23;16.60;;;3.58;;
56043;SDS011;41912;51.022;3.664;2023-03-26T05:18:50;18.83;;;3.17;;
56043;SDS011;41912;51.022;3.664;2023-03-26T05:21:15;15.13;;;2.83;;
56043;SDS011;41912;51.022;3.664;2023-03-26T05:23:41;14.82;;;3.33;;
56043;SDS011;41912;51.022;3.664;2023-03-26T05:26:07;15.23;;;2.80;;
56043;SDS011;41912;51.022;3.664;2023-03-26T05:28:34;18.35;;;2.22;;
56043;SDS011;41912;51.022;3.664;2023-03-26T05:31:00;10.13;;;2.30;;
56043;SDS011;41912;51.022;3.664;2023-03-26T05:33:26;10.32;;;1.90;;
56043;SDS011;41912;51.022;3.664;2023-03-26T05:36:06;5.40;;;1.80;;
56043;SDS011;41912;51.022;3.664;2023-03-26T05:38:37;6.18;;;1.65;;
56043;SDS011;41912;51.022;3.664;2023-03-26T05:41:04;17.92;;;2.90;;
56043;SDS011;41912;51.022;3.664;2023-03-26T05:43:31;8.07;;;1.65;;
56043;SDS011;41912;51.022;3.664;2023-03-26T05:45:57;6.60;;;1.85;;
56043;SDS011;41912;51.022;3.664;2023-03-26T05:48:23;9.80;;;1.67;;
56043;SDS011;41912;51.022;3.664;2023-03-26T05:50:50;4.53;;;1.30;;
56043;SDS011;41912;51.022;3.664;2023-03-26T05:53:17;6.63;;;1.77;;
56043;SDS011;41912;51.022;3.664;2023-03-26T05:55:44;9.38;;;2.33;;
56043;SDS011;41912;51.022;3.664;2023-03-26T05:58:14;7.63;;;1.65;;
56043;SDS011;41912;51.022;3.664;2023-03-26T06:00:40;7.60;;;1.77;;
56043;SDS011;41912;51.022;3.664;2023-03-26T06:03:06;11.27;;;2.83;;
56043;SDS011;41912;51.022;3.664;2023-03-26T06:05:36;9.70;;;2.00;;
56043;SDS011;41912;51.022;3.664;2023-03-26T06:08:03;12.30;;;2.22;;
56043;SDS011;41912;51.022;3.664;2023-03-26T06:10:29;13.63;;;2.58;;
56043;SDS011;41912;51.022;3.664;2023-03-26T06:12:55;10.80;;;2.55;;
56043;SDS011;41912;51.022;3.664;2023-03-26T06:15:21;8.30;;;2.55;;
56043;SDS011;41912;51.022;3.664;2023-03-26T06:17:46;10.30;;;2.47;;
56043;SDS011;41912;51.022;3.664;2023-03-26T06:20:12;16.60;;;4.43;;
56043;SDS011;41912;51.022;3.664;2023-03-26T06:22:38;12.15;;;3.33;;
56043;SDS011;41912;51.022;3.664;2023-03-26T06:25:04;8.02;;;2.83;;
56043;SDS011;41912;51.022;3.664;2023-03-26T06:27:30;11.20;;;2.15;;
56043;SDS011;41912;51.022;3.664;2023-03-26T06:29:56;9.57;;;2.25;;
56043;SDS011;41912;51.022;3.664;2023-03-26T06:32:21;9.60;;;2.47;;
56043;SDS011;41912;51.022;3.664;2023-03-26T06:34:47;7.13;;;3.53;;
56043;SDS011;41912;51.022;3.664;2023-03-26T06:37:13;8.63;;;2.05;;
56043;SDS011;41912;51.022;3.664;2023-03-26T06:39:40;9.45;;;2.20;;
56043;SDS011;41912;51.022;3.664;2023-03-26T06:42:05;10.00;;;2.08;;
56043;SDS011;41912;51.022;3.664;2023-03-26T06:44:31;7.20;;;1.67;;
56043;SDS011;41912;51.022;3.664;2023-03-26T06:46:57;8.80;;;2.42;;
56043;SDS011;41912;51.022;3.664;2023-03-26T06:49:22;11.73;;;2.47;;
56043;SDS011;41912;51.022;3.664;2023-03-26T06:51:48;11.00;;;3.53;;
56043;SDS011;41912;51.022;3.664;2023-03-26T06:54:14;5.75;;;2.00;;
56043;SDS011;41912;51.022;3.664;2023-03-26T06:56:39;7.40;;;1.92;;
56043;SDS011;41912;51.022;3.664;2023-03-26T06:59:05;7.90;;;1.67;;
56043;SDS011;41912;51.022;3.664;2023-03-26T07:01:30;4.85;;;1.63;;
56043;SDS011;41912;51.022;3.664;2023-03-26T07:03:56;4.15;;;1.63;;
56043;SDS011;41912;51.022;3.664;2023-03-26T07:06:22;7.32;;;1.88;;
56043;SDS011;41912;51.022;3.664;2023-03-26T07:08:48;7.70;;;2.17;;
56043;SDS011;41912;51.022;3.664;2023-03-26T07:11:13;7.00;;;1.40;;
56043;SDS011;41912;51.022;3.664;2023-03-26T07:13:41;6.43;;;1.45;;
56043;SDS011;41912;51.022;3.664;2023-03-26T07:16:06;5.53;;;1.90;;
56043;SDS011;41912;51.022;3.664;2023-03-26T07:18:32;4.75;;;1.50;;
56043;SDS011;41912;51.022;3.664;2023-03-26T07:20:58;7.57;;;1.85;;
56043;SDS011;41912;51.022;3.664;2023-03-26T07:23:24;4.97;;;1.63;;
56043;SDS011;41912;51.022;3.664;2023-03-26T07:25:50;6.05;;;1.65;;
56043;SDS011;41912;51.022;3.664;2023-03-26T07:28:32;6.70;;;1.40;;
56043;SDS011;41912;51.022;3.664;2023-03-26T07:34:26;3.53;;;1.38;;
56043;SDS011;41912;51.022;3.664;2023-03-26T07:37:04;5.13;;;1.30;;
56043;SDS011;41912;51.022;3.664;2023-03-26T07:39:58;6.25;;;1.38;;
56043;SDS011;41912;51.022;3.664;2023-03-26T07:47:41;5.10;;;1.35;;
56043;SDS011;41912;51.022;3.664;2023-03-26T07:50:12;4.55;;;1.42;;
56043;SDS011;41912;51.022;3.664;2023-03-26T07:52:42;3.88;;;1.33;;
56043;SDS011;41912;51.022;3.664;2023-03-26T07:55:11;3.17;;;1.30;;
56043;SDS011;41912;51.022;3.664;2023-03-26T08:00:18;5.13;;;1.17;;
56043;SDS011;41912;51.022;3.664;2023-03-26T08:03:02;3.35;;;1.00;;
56043;SDS011;41912;51.022;3.664;2023-03-26T08:05:32;6.15;;;1.38;;
56043;SDS011;41912;51.022;3.664;2023-03-26T08:13:43;2.85;;;1.20;;
56043;SDS011;41912;51.022;3.664;2023-03-26T08:24:55;6.03;;;1.48;;
56043;SDS011;41912;51.022;3.664;2023-03-26T08:27:42;5.57;;;1.63;;
56043;SDS011;41912;51.022;3.664;2023-03-26T08:30:30;3.90;;;1.27;;
56043;SDS011;41912;51.022;3.664;2023-03-26T08:32:57;3.22;;;1.10;;
56043;SDS011;41912;51.022;3.664;2023-03-26T08:35:35;6.75;;;2.47;;
56043;SDS011;41912;51.022;3.664;2023-03-26T08:38:06;4.68;;;1.77;;
56043;SDS011;41912;51.022;3.664;2023-03-26T09:15:26;9.07;;;2.25;;
56043;SDS011;41912;51.022;3.664;2023-03-26T09:21:02;5.38;;;1.80;;
56043;SDS011;41912;51.022;3.664;2023-03-26T09:34:30;5.97;;;1.30;;
56043;SDS011;41912;51.022;3.664;2023-03-26T09:37:27;3.55;;;1.45;;
56043;SDS011;41912;51.022;3.664;2023-03-26T09:40:17;5.25;;;1.20;;
56043;SDS011;41912;51.022;3.664;2023-03-26T09:54:13;5.43;;;1.63;;
56043;SDS011;41912;51.022;3.664;2023-03-26T10:00:07;4.45;;;1.73;;
56043;SDS011;41912;51.022;3.664;2023-03-26T10:03:07;4.97;;;1.70;;
56043;SDS011;41912;51.022;3.664;2023-03-26T10:11:16;4.55;;;2.00;;
56043;SDS011;41912;51.022;3.664;2023-03-26T10:16:33;5.13;;;2.30;;
56043;SDS011;41912;51.022;3.664;2023-03-26T10:19:22;3.95;;;1.90;;
56043;SDS011;41912;51.022;3.664;2023-03-26T10:35:43;5.95;;;2.50;;
56043;SDS011;41912;51.022;3.664;2023-03-26T10:56:56;5.35;;;1.75;;
56043;SDS011;41912;51.022;3.664;2023-03-26T10:59:23;8.00;;;2.58;;
56043;SDS011;41912;51.022;3.664;2023-03-26T11:02:21;8.98;;;2.25;;
56043;SDS011;41912;51.022;3.664;2023-03-26T11:07:36;9.00;;;2.55;;
56043;SDS011;41912;51.022;3.664;2023-03-26T11:16:24;7.03;;;1.73;;
56043;SDS011;41912;51.022;3.664;2023-03-26T11:22:25;2.90;;;1.30;;
56043;SDS011;41912;51.022;3.664;2023-03-26T11:28:25;2.55;;;1.52;;
56043;SDS011;41912;51.022;3.664;2023-03-26T11:31:00;6.18;;;1.45;;
56043;SDS011;41912;51.022;3.664;2023-03-26T11:33:30;4.35;;;1.60;;
56043;SDS011;41912;51.022;3.664;2023-03-26T11:36:04;2.15;;;0.93;;
56043;SDS011;41912;51.022;3.664;2023-03-26T11:38:35;3.65;;;1.17;;
56043;SDS011;41912;51.022;3.664;2023-03-26T11:41:04;2.85;;;0.90;;
56043;SDS011;41912;51.022;3.664;2023-03-26T11:46:14;2.65;;;1.27;;
56043;SDS011;41912;51.022;3.664;2023-03-26T11:48:44;2.60;;;1.08;;
56043;SDS011;41912;51.022;3.664;2023-03-26T11:51:14;3.25;;;1.10;;
56043;SDS011;41912;51.022;3.664;2023-03-26T11:53:49;5.05;;;1.38;;
56043;SDS011;41912;51.022;3.664;2023-03-26T11:56:31;3.60;;;1.30;;
56043;SDS011;41912;51.022;3.664;2023-03-26T11:59:10;3.85;;;1.60;;
56043;SDS011;41912;51.022;3.664;2023-03-26T12:01:47;4.60;;;1.73;;
56043;SDS011;41912;51.022;3.664;2023-03-26T12:04:14;3.40;;;1.73;;
56043;SDS011;41912;51.022;3.664;2023-03-26T12:06:49;5.40;;;1.83;;
56043;SDS011;41912;51.022;3.664;2023-03-26T12:09:35;3.70;;;1.50;;
56043;SDS011;41912;51.022;3.664;2023-03-26T12:12:01;3.13;;;1.63;;
56043;SDS011;41912;51.022;3.664;2023-03-26T12:14:29;4.30;;;1.73;;
56043;SDS011;41912;51.022;3.664;2023-03-26T12:19:26;2.75;;;1.33;;
56043;SDS011;41912;51.022;3.664;2023-03-26T12:22:00;6.13;;;2.55;;
56043;SDS011;41912;51.022;3.664;2023-03-26T12:24:30;5.22;;;2.50;;
56043;SDS011;41912;51.022;3.664;2023-03-26T12:27:05;5.53;;;2.90;;
56043;SDS011;41912;51.022;3.664;2023-03-26T12:29:49;6.15;;;1.55;;
56043;SDS011;41912;51.022;3.664;2023-03-26T12:32:15;3.67;;;1.67;;
56043;SDS011;41912;51.022;3.664;2023-03-26T12:34:41;4.10;;;1.80;;
56043;SDS011;41912;51.022;3.664;2023-03-26T12:37:30;3.85;;;1.55;;
56043;SDS011;41912;51.022;3.664;2023-03-26T12:40:46;4.15;;;1.38;;
56043;SDS011;41912;51.022;3.664;2023-03-26T12:42:50;3.47;;;1.70;;
56043;SDS011;41912;51.022;3.664;2023-03-26T12:45:21;7.47;;;1.70;;
56043;SDS011;41912;51.022;3.664;2023-03-26T12:48:08;6.80;;;2.00;;
56043;SDS011;41912;51.022;3.664;2023-03-26T12:56:08;8.93;;;3.35;;
56043;SDS011;41912;51.022;3.664;2023-03-26T13:01:37;4.60;;;1.98;;
56043;SDS011;41912;51.022;3.664;2023-03-26T13:07:06;6.15;;;1.55;;
56043;SDS011;41912;51.022;3.664;2023-03-26T13:15:31;5.15;;;1.65;;
56043;SDS011;41912;51.022;3.664;2023-03-26T13:21:10;3.20;;;1.25;;
56043;SDS011;41912;51.022;3.664;2023-03-26T13:32:13;5.38;;;1.73;;
56043;SDS011;41912;51.022;3.664;2023-03-26T13:45:25;4.40;;;2.00;;
56043;SDS011;41912;51.022;3.664;2023-03-26T13:48:09;7.07;;;2.50;;
56043;SDS011;41912;51.022;3.664;2023-03-26T13:50:41;8.40;;;2.58;;
56043;SDS011;41912;51.022;3.664;2023-03-26T13:53:15;7.72;;;2.20;;
56043;SDS011;41912;51.022;3.664;2023-03-26T13:55:47;8.75;;;2.55;;
56043;SDS011;41912;51.022;3.664;2023-03-26T13:58:24;6.32;;;2.22;;
56043;SDS011;41912;51.022;3.664;2023-03-26T14:01:13;4.47;;;2.10;;
56043;SDS011;41912;51.022;3.664;2023-03-26T14:08:55;7.50;;;3.03;;
56043;SDS011;41912;51.022;3.664;2023-03-26T14:14:22;4.70;;;2.35;;
56043;SDS011;41912;51.022;3.664;2023-03-26T14:16:56;4.15;;;2.50;;
56043;SDS011;41912;51.022;3.664;2023-03-26T14:25:55;8.88;;;3.08;;
56043;SDS011;41912;51.022;3.664;2023-03-26T14:28:50;9.63;;;3.10;;
56043;SDS011;41912;51.022;3.664;2023-03-26T14:40:29;5.00;;;2.55;;
56043;SDS011;41912;51.022;3.664;2023-03-26T14:52:02;10.68;;;4.65;;
56043;SDS011;41912;51.022;3.664;2023-03-26T14:54:52;11.47;;;4.60;;
56043;SDS011;41912;51.022;3.664;2023-03-26T15:18:55;12.68;;;4.68;;
56043;SDS011;41912;51.022;3.664;2023-03-26T15:51:52;20.52;;;4.10;;
56043;SDS011;41912;51.022;3.664;2023-03-26T16:06:11;24.17;;;3.35;;
56043;SDS011;41912;51.022;3.664;2023-03-26T16:22:02;15.20;;;3.65;;
56043;SDS011;41912;51.022;3.664;2023-03-26T16:24:38;28.48;;;4.32;;
56043;SDS011;41912;51.022;3.664;2023-03-26T16:30:39;26.10;;;3.95;;
56043;SDS011;41912;51.022;3.664;2023-03-26T16:32:53;25.20;;;3.78;;
56043;SDS011;41912;51.022;3.664;2023-03-26T16:35:38;17.00;;;4.07;;
56043;SDS011;41912;51.022;3.664;2023-03-26T16:38:09;15.88;;;3.00;;
56043;SDS011;41912;51.022;3.664;2023-03-26T16:43:45;17.55;;;2.92;;
56043;SDS011;41912;51.022;3.664;2023-03-26T16:46:27;19.90;;;4.30;;
56043;SDS011;41912;51.022;3.664;2023-03-26T16:52:07;24.55;;;4.60;;
56043;SDS011;41912;51.022;3.664;2023-03-26T16:57:27;20.92;;;4.35;;
56043;SDS011;41912;51.022;3.664;2023-03-26T17:02:55;12.68;;;3.22;;
56043;SDS011;41912;51.022;3.664;2023-03-26T17:05:54;22.35;;;3.53;;
56043;SDS011;41912;51.022;3.664;2023-03-26T17:08:39;20.38;;;3.10;;
56043;SDS011;41912;51.022;3.664;2023-03-26T17:11:36;16.80;;;2.88;;
56043;SDS011;41912;51.022;3.664;2023-03-26T17:14:54;18.77;;;2.85;;
56043;SDS011;41912;51.022;3.664;2023-03-26T17:20:18;20.17;;;2.95;;
56043;SDS011;41912;51.022;3.664;2023-03-26T17:28:30;19.10;;;3.33;;
56043;SDS011;41912;51.022;3.664;2023-03-26T17:31:03;20.02;;;2.65;;
56043;SDS011;41912;51.022;3.664;2023-03-26T17:33:42;14.95;;;2.55;;
56043;SDS011;41912;51.022;3.664;2023-03-26T17:41:08;19.00;;;2.55;;
56043;SDS011;41912;51.022;3.664;2023-03-26T17:46:30;13.70;;;3.60;;
56043;SDS011;41912;51.022;3.664;2023-03-26T17:49:12;23.48;;;3.17;;
56043;SDS011;41912;51.022;3.664;2023-03-26T17:51:46;13.93;;;2.58;;
56043;SDS011;41912;51.022;3.664;2023-03-26T17:54:37;22.27;;;4.18;;
56043;SDS011;41912;51.022;3.664;2023-03-26T17:57:44;16.30;;;2.60;;
56043;SDS011;41912;51.022;3.664;2023-03-26T18:00:06;23.80;;;2.92;;
56043;SDS011;41912;51.022;3.664;2023-03-26T18:02:40;19.42;;;3.25;;
56043;SDS011;41912;51.022;3.664;2023-03-26T18:05:13;18.92;;;3.75;;
56043;SDS011;41912;51.022;3.664;2023-03-26T18:07:50;25.52;;;3.70;;
56043;SDS011;41912;51.022;3.664;2023-03-26T18:10:31;20.67;;;2.92;;
56043;SDS011;41912;51.022;3.664;2023-03-26T18:20:51;21.38;;;3.22;;
56043;SDS011;41912;51.022;3.664;2023-03-26T18:23:25;15.88;;;3.25;;
56043;SDS011;41912;51.022;3.664;2023-03-26T18:28:40;18.85;;;3.45;;
56043;SDS011;41912;51.022;3.664;2023-03-26T18:31:15;13.88;;;2.15;;
56043;SDS011;41912;51.022;3.664;2023-03-26T18:33:44;17.15;;;3.03;;
56043;SDS011;41912;51.022;3.664;2023-03-26T18:36:12;23.48;;;3.10;;
56043;SDS011;41912;51.022;3.664;2023-03-26T18:38:39;22.95;;;2.60;;
56043;SDS011;41912;51.022;3.664;2023-03-26T18:41:06;18.15;;;2.85;;
56043;SDS011;41912;51.022;3.664;2023-03-26T18:43:39;14.75;;;2.20;;
56043;SDS011;41912;51.022;3.664;2023-03-26T18:46:05;13.90;;;2.45;;
56043;SDS011;41912;51.022;3.664;2023-03-26T18:48:31;19.38;;;3.25;;
56043;SDS011;41912;51.022;3.664;2023-03-26T18:51:00;12.57;;;2.22;;
56043;SDS011;41912;51.022;3.664;2023-03-26T18:53:29;19.27;;;3.17;;
56043;SDS011;41912;51.022;3.664;2023-03-26T18:59:04;16.48;;;2.33;;
56043;SDS011;41912;51.022;3.664;2023-03-26T19:01:41;16.70;;;3.30;;
56043;SDS011;41912;51.022;3.664;2023-03-26T19:04:09;29.05;;;4.65;;
56043;SDS011;41912;51.022;3.664;2023-03-26T19:06:37;12.00;;;2.08;;
56043;SDS011;41912;51.022;3.664;2023-03-26T19:09:06;21.80;;;2.83;;
56043;SDS011;41912;51.022;3.664;2023-03-26T19:11:37;15.02;;;2.40;;
56043;SDS011;41912;51.022;3.664;2023-03-26T19:14:15;14.32;;;2.42;;
56043;SDS011;41912;51.022;3.664;2023-03-26T19:16:46;16.27;;;2.72;;
56043;SDS011;41912;51.022;3.664;2023-03-26T19:19:20;18.15;;;2.40;;
56043;SDS011;41912;51.022;3.664;2023-03-26T19:21:48;12.15;;;2.10;;
56043;SDS011;41912;51.022;3.664;2023-03-26T19:24:15;16.55;;;3.05;;
56043;SDS011;41912;51.022;3.664;2023-03-26T19:26:43;9.80;;;2.22;;
56043;SDS011;41912;51.022;3.664;2023-03-26T19:29:11;13.00;;;2.25;;
56043;SDS011;41912;51.022;3.664;2023-03-26T19:31:39;10.35;;;2.05;;
56043;SDS011;41912;51.022;3.664;2023-03-26T19:36:48;12.98;;;1.92;;
56043;SDS011;41912;51.022;3.664;2023-03-26T19:39:16;9.82;;;1.58;;
56043;SDS011;41912;51.022;3.664;2023-03-26T19:41:41;15.60;;;2.33;;
56043;SDS011;41912;51.022;3.664;2023-03-26T19:47:00;15.73;;;2.28;;
56043;SDS011;41912;51.022;3.664;2023-03-26T19:49:31;11.27;;;2.10;;
56043;SDS011;41912;51.022;3.664;2023-03-26T19:54:43;6.43;;;1.67;;
56043;SDS011;41912;51.022;3.664;2023-03-26T19:57:15;14.30;;;2.67;;
56043;SDS011;41912;51.022;3.664;2023-03-26T19:59:41;11.13;;;2.22;;
56043;SDS011;41912;51.022;3.664;2023-03-26T20:02:10;20.00;;;2.50;;
56043;SDS011;41912;51.022;3.664;2023-03-26T20:04:36;10.35;;;2.20;;
56043;SDS011;41912;51.022;3.664;2023-03-26T20:07:07;9.52;;;1.80;;
56043;SDS011;41912;51.022;3.664;2023-03-26T20:09:39;15.25;;;1.90;;
56043;SDS011;41912;51.022;3.664;2023-03-26T20:12:06;19.92;;;3.28;;
56043;SDS011;41912;51.022;3.664;2023-03-26T20:14:32;15.40;;;2.40;;
56043;SDS011;41912;51.022;3.664;2023-03-26T20:16:57;10.23;;;3.15;;
56043;SDS011;41912;51.022;3.664;2023-03-26T20:19:23;9.07;;;2.00;;
56043;SDS011;41912;51.022;3.664;2023-03-26T20:21:50;14.95;;;1.83;;
56043;SDS011;41912;51.022;3.664;2023-03-26T20:24:16;10.82;;;2.38;;
56043;SDS011;41912;51.022;3.664;2023-03-26T20:26:43;15.63;;;2.10;;
56043;SDS011;41912;51.022;3.664;2023-03-26T20:29:10;9.15;;;2.90;;
56043;SDS011;41912;51.022;3.664;2023-03-26T20:31:36;14.57;;;2.10;;
56043;SDS011;41912;51.022;3.664;2023-03-26T20:34:07;15.65;;;2.10;;
56043;SDS011;41912;51.022;3.664;2023-03-26T20:36:46;10.80;;;2.70;;
56043;SDS011;41912;51.022;3.664;2023-03-26T20:39:17;9.82;;;1.80;;
56043;SDS011;41912;51.022;3.664;2023-03-26T20:41:45;9.85;;;2.00;;
56043;SDS011;41912;51.022;3.664;2023-03-26T20:44:12;8.40;;;2.28;;
56043;SDS011;41912;51.022;3.664;2023-03-26T20:46:40;12.65;;;1.70;;
56043;SDS011;41912;51.022;3.664;2023-03-26T20:49:07;10.13;;;1.70;;
56043;SDS011;41912;51.022;3.664;2023-03-26T20:51:34;9.20;;;1.85;;
56043;SDS011;41912;51.022;3.664;2023-03-26T20:54:02;7.45;;;1.70;;
56043;SDS011;41912;51.022;3.664;2023-03-26T20:56:45;12.73;;;1.98;;
56043;SDS011;41912;51.022;3.664;2023-03-26T20:59:15;10.75;;;1.77;;
56043;SDS011;41912;51.022;3.664;2023-03-26T21:01:46;12.18;;;2.17;;
56043;SDS011;41912;51.022;3.664;2023-03-26T21:04:13;14.07;;;2.08;;
56043;SDS011;41912;51.022;3.664;2023-03-26T21:06:40;7.20;;;1.70;;
56043;SDS011;41912;51.022;3.664;2023-03-26T21:09:06;11.50;;;1.90;;
56043;SDS011;41912;51.022;3.664;2023-03-26T21:16:57;15.07;;;3.70;;
56043;SDS011;41912;51.022;3.664;2023-03-26T21:19:24;13.35;;;2.17;;